Etusivu
METAR-TAF:

METAR-TAF

Lentoasemat :

Gifu, Japani

Leveyspiiri: 35-23N, Pituuspiiri: 136-52E, korkeus merenpinnasta: 39 m

Tämänhetkinen sää

Tämä raportti tehtiin 10 tuntia ja 19 minuuttia sitten, kello 03.28 UTC
Tuuli 2 kn eri suunnista
Lämpötila 23°C
Kosteus 73%
Ilmanpaine 1003 hPa
Näkyvyys 10 km tai enemmän
Muutamia pilviä 1000 ft:n korkeudessa
Hajanaisia pilviä 2500 ft:n korkeudessa
Hajonneita pilviä 3500 ft:n korkeudessa
heikkoja vesikuuroja

METAR: RJNG 250328Z VRB02KT 9999 -SHRA FEW010 SCT025 BKN035 23/18 Q1003 RMK 1CU010 4CU025 6CU035 A2964

Aika: 22:47 (13:47 UTC)


TAF: puuttuu

Säähavainnot ja -ennusteet yli 4000 lentoasemalta (METAR- ja TAF-raportit).

Käytössä olevat sääasemat on merkitty karttaan keltaisilla ja punaisilla pisteillä.

Aseta hiiri pisteen päälle nähdäksesi sääaseman nimen.

Klikkaa sitten nähdäksesi säähavainnot ja -ennusteet.

Kartan vaihtaminen: klikkaa mustalla rastilla varustettuja vihreitä pisteitä, niin voit zoomata sisään; viivalla varustettua vihreää pistettä, niin voit zoomata ulos tai vihreitä nuolia, niin pääset viereisille kartoille.


METAR-TAF: